KICT/ICT METAR and TAF weather

Enter ICAO airport designator
Station Type Date Time Source
KICT METAR 2020/07/14 21:53 UTC NOAA

KICT 142153Z 13005KT 10SM R01L/P6000FT SCT050 SCT250 35/23 A2982


Station Type Date Time Source
KICT Decoded METAR 2020/07/14 21:53 UTC NOAA

WICHITA MID-CONTINENT AIRPORT , KS, United States (KICT) 37-39N 97-26W 408M
Jul 14, 2020 - 05:53 PM EDT / 2020.07.14 2153 UTC
Wind: from the SE (130 degrees) at 6 MPH (5 KT):0
Visibility: 10 mile(s):0
Sky conditions: partly cloudy
Temperature: 95 F (35 C)
Heat index: 104.5 F (40.3 C):1
Dew Point: 73 F (23 C)
Relative Humidity: 49%
Pressure (altimeter): 29.82 in. Hg (1009 hPa)
ob: KICT 142153Z 13005KT 10SM R01L/P6000FT SCT050 SCT250 35/23 A2982
cycle: 22

Station Type Date Time Source
KICT TAF 2020/07/14 18:39 UTC NOAA

TAF KICT 141736Z 1418/1518 16015KT P6SM FEW025 FEW200
FM142100 11010KT P6SM FEW060
FM150000 07009KT P6SM BKN100
FM150700 03010KT P6SM VCTS SCT035 OVC070CB
FM151200 01011KT P6SM BKN060

Example: see airport list